createdAt,value
2017-05-16T00:01:00.655Z,95.30
2017-05-16T00:03:29.085Z,95.80
2017-05-16T00:05:56.722Z,95.80
2017-05-16T00:08:24.419Z,95.20
2017-05-16T00:10:52.057Z,95.70
2017-05-16T00:13:19.722Z,95.60
2017-05-16T00:15:47.365Z,94.80
2017-05-16T00:18:15.810Z,96.10
2017-05-16T00:20:44.220Z,96.40
2017-05-16T00:23:13.018Z,96.80
2017-05-16T00:25:40.660Z,96.70
2017-05-16T00:28:08.318Z,96.90
2017-05-16T00:30:36.754Z,95.40
2017-05-16T00:33:04.377Z,95.50
2017-05-16T00:35:33.081Z,96.20
2017-05-16T00:38:00.718Z,96.20
2017-05-16T00:40:29.138Z,96.00
2017-05-16T00:42:58.310Z,97.40
2017-05-16T00:45:32.662Z,97.20
2017-05-16T00:48:00.325Z,97.20
2017-05-16T00:50:27.966Z,97.10
2017-05-16T00:52:55.646Z,96.90
2017-05-16T00:55:23.326Z,97.00
2017-05-16T00:57:50.970Z,97.50
2017-05-16T01:00:18.646Z,97.30
2017-05-16T01:02:46.290Z,97.80
2017-05-16T01:05:14.726Z,97.20
2017-05-16T01:07:43.129Z,97.20
2017-05-16T01:10:11.113Z,97.20
2017-05-16T01:12:38.761Z,97.70
2017-05-16T01:15:06.458Z,96.70
2017-05-16T01:17:34.979Z,98.20
2017-05-16T01:20:03.381Z,97.70
2017-05-16T01:22:32.104Z,97.70
2017-05-16T01:24:59.739Z,97.70
2017-05-16T01:27:28.152Z,98.80
2017-05-16T01:29:55.843Z,98.10
2017-05-16T01:32:23.477Z,98.70
2017-05-16T01:34:51.910Z,98.30
2017-05-16T01:37:19.551Z,98.30
2017-05-16T01:39:47.589Z,98.90
2017-05-16T01:42:15.225Z,98.00
2017-05-16T01:44:42.865Z,98.30
2017-05-16T01:47:10.532Z,98.70
2017-05-16T01:49:38.165Z,99.30
2017-05-16T01:52:06.596Z,99.30
2017-05-16T01:54:35.000Z,99.30
2017-05-16T01:57:02.661Z,99.10
2017-05-16T01:59:30.327Z,99.10
2017-05-16T02:01:58.344Z,99.00
2017-05-16T02:04:26.850Z,99.60
2017-05-16T02:06:54.484Z,99.60
2017-05-16T02:09:23.650Z,99.90
2017-05-16T02:11:51.289Z,99.90
2017-05-16T02:14:18.953Z,99.90
2017-05-16T02:16:47.356Z,99.90
2017-05-16T02:19:15.784Z,99.70
2017-05-16T02:21:43.429Z,99.70
2017-05-16T02:24:11.085Z,99.60
2017-05-16T02:26:38.717Z,99.90
2017-05-16T02:29:06.385Z,99.90
2017-05-16T02:31:34.787Z,99.90
2017-05-16T02:34:03.245Z,99.90
2017-05-16T02:36:30.878Z,99.90
2017-05-16T02:38:59.301Z,99.30
2017-05-16T02:41:26.946Z,99.30
2017-05-16T02:43:54.889Z,98.60
2017-05-16T02:46:22.589Z,98.60
2017-05-16T02:48:50.213Z,99.80
2017-05-16T02:51:17.883Z,99.90
2017-05-16T02:53:46.299Z,99.90
2017-05-16T02:56:13.971Z,99.80
2017-05-16T02:58:41.613Z,99.90
2017-05-16T03:01:09.273Z,99.90
2017-05-16T03:03:36.913Z,99.40
2017-05-16T03:06:04.573Z,99.90
2017-05-16T03:08:32.211Z,99.50
2017-05-16T03:11:00.230Z,98.70
2017-05-16T03:13:27.867Z,99.50
2017-05-16T03:15:55.512Z,99.90
2017-05-16T03:18:23.173Z,99.90
2017-05-16T03:20:50.821Z,99.30
2017-05-16T03:23:18.493Z,99.90
2017-05-16T03:25:49.038Z,99.90
2017-05-16T03:28:17.468Z,99.20
2017-05-16T03:30:46.614Z,99.00
2017-05-16T03:33:14.274Z,99.00
2017-05-16T03:35:41.911Z,99.60
2017-05-16T03:38:09.911Z,98.70
2017-05-16T03:40:37.555Z,98.90
2017-05-16T03:43:05.207Z,99.70
2017-05-16T03:45:33.638Z,99.90
2017-05-16T03:48:01.269Z,99.90
2017-05-16T03:50:28.959Z,99.90
2017-05-16T03:52:56.596Z,99.30
2017-05-16T03:55:24.559Z,98.10
2017-05-16T03:57:52.247Z,98.40
2017-05-16T04:00:19.887Z,98.00
2017-05-16T04:02:47.548Z,97.40
2017-05-16T04:05:15.209Z,97.40
2017-05-16T04:07:42.866Z,97.30
2017-05-16T04:10:10.500Z,97.90
2017-05-16T04:12:38.907Z,97.00
2017-05-16T04:15:06.945Z,97.00
2017-05-16T04:17:34.583Z,96.90
2017-05-16T04:20:02.230Z,97.10
2017-05-16T04:22:39.640Z,96.00
2017-05-16T04:25:07.466Z,95.90
2017-05-16T04:27:35.130Z,94.20
2017-05-16T04:30:03.535Z,93.30
2017-05-16T04:32:31.517Z,92.90
2017-05-16T04:34:59.151Z,91.50
2017-05-16T04:37:26.792Z,91.50
2017-05-16T04:39:54.464Z,88.20
2017-05-16T04:42:22.152Z,88.00
2017-05-16T04:44:50.698Z,85.50
2017-05-16T04:47:18.332Z,85.50
2017-05-16T04:49:46.317Z,85.10
2017-05-16T04:52:14.719Z,84.30
2017-05-16T04:54:43.133Z,83.10
2017-05-16T04:57:11.566Z,83.50
2017-05-16T04:59:39.203Z,83.50
2017-05-16T05:02:06.867Z,83.40
2017-05-16T05:04:34.539Z,81.90
2017-05-16T05:07:02.969Z,79.20
2017-05-16T05:09:30.619Z,79.20
2017-05-16T05:11:59.485Z,76.90
2017-05-16T05:14:27.909Z,74.90
2017-05-16T05:16:55.575Z,74.90
2017-05-16T05:19:23.246Z,75.00
2017-05-16T05:21:50.898Z,78.70
2017-05-16T05:24:19.329Z,70.20
2017-05-16T05:26:46.966Z,70.20
2017-05-16T05:29:15.417Z,65.40
2017-05-16T05:31:43.816Z,64.40
2017-05-16T05:34:11.495Z,64.40
2017-05-16T05:36:39.133Z,62.30
2017-05-16T05:39:06.816Z,64.50
2017-05-16T05:41:35.223Z,60.90
2017-05-16T05:44:02.884Z,60.90
2017-05-16T05:46:30.525Z,57.90
2017-05-16T05:48:58.492Z,55.80
2017-05-16T05:51:26.141Z,55.40
2017-05-16T05:53:54.552Z,51.20
2017-05-16T05:56:22.989Z,48.70
2017-05-16T05:58:50.667Z,48.70
2017-05-16T06:01:19.113Z,45.80
2017-05-16T06:03:47.650Z,43.70
2017-05-16T06:06:15.605Z,43.50
2017-05-16T06:08:44.003Z,41.20
2017-05-16T06:11:11.669Z,41.10
2017-05-16T06:13:40.110Z,38.70
2017-05-16T06:16:07.736Z,38.70
2017-05-16T06:18:36.192Z,40.70
2017-05-16T06:21:03.825Z,40.60
2017-05-16T06:23:31.504Z,41.60
2017-05-16T06:25:59.131Z,42.30
2017-05-16T06:28:27.546Z,38.30
2017-05-16T06:30:55.932Z,36.10
2017-05-16T06:33:24.723Z,33.30
2017-05-16T06:35:52.341Z,33.30
2017-05-16T06:38:20.753Z,31.80
2017-05-16T06:40:48.389Z,31.80
2017-05-16T06:43:16.017Z,32.40
2017-05-16T06:45:44.446Z,31.70
2017-05-16T06:48:12.053Z,31.80
2017-05-16T06:50:39.705Z,30.90
2017-05-16T06:53:07.322Z,30.70
2017-05-16T06:55:34.989Z,29.90
2017-05-16T06:58:02.606Z,29.20
2017-05-16T07:00:30.251Z,29.40
2017-05-16T07:02:57.865Z,29.90
2017-05-16T07:05:25.868Z,29.70
2017-05-16T07:07:53.482Z,28.60
2017-05-16T07:10:21.867Z,27.30
2017-05-16T07:12:49.515Z,27.20
2017-05-16T07:15:17.898Z,26.10
2017-05-16T07:17:45.541Z,26.50
2017-05-16T07:20:13.160Z,29.00
2017-05-16T07:22:40.826Z,27.80
2017-05-16T07:25:09.217Z,25.30
2017-05-16T07:27:37.639Z,25.20
2017-05-16T07:30:05.256Z,25.20
2017-05-16T07:32:32.922Z,25.80
2017-05-16T07:35:01.320Z,25.30
2017-05-16T07:37:28.957Z,25.30
2017-05-16T07:39:56.576Z,23.50
2017-05-16T07:42:25.274Z,25.80
2017-05-16T07:44:52.893Z,25.30
2017-05-16T07:47:21.277Z,24.80
2017-05-16T07:49:48.913Z,24.80
2017-05-16T07:52:17.302Z,25.60
2017-05-16T07:54:44.942Z,25.60
2017-05-16T07:57:12.570Z,23.30
2017-05-16T07:59:40.991Z,21.60
2017-05-16T08:02:08.616Z,21.50
2017-05-16T08:04:37.026Z,20.90
2017-05-16T08:07:04.643Z,20.80
2017-05-16T08:09:32.284Z,21.50
2017-05-16T08:11:59.907Z,20.20
2017-05-16T08:14:27.559Z,21.30
2017-05-16T08:16:55.170Z,21.50
2017-05-16T08:19:23.574Z,20.60
2017-05-16T08:21:51.948Z,20.20
2017-05-16T08:24:19.885Z,20.20
2017-05-16T08:26:47.501Z,21.20
2017-05-16T08:29:15.885Z,17.70
2017-05-16T08:31:43.529Z,17.70
2017-05-16T08:34:11.148Z,19.70
2017-05-16T08:36:39.558Z,18.40
2017-05-16T08:39:07.185Z,18.40
2017-05-16T08:41:34.817Z,20.70
2017-05-16T08:44:03.209Z,21.20
2017-05-16T08:46:31.613Z,22.40
2017-05-16T08:48:59.272Z,22.40
2017-05-16T08:51:27.679Z,26.50
2017-05-16T08:53:55.308Z,25.80
2017-05-16T08:56:22.944Z,23.70
2017-05-16T08:58:50.570Z,23.80
2017-05-16T09:01:18.219Z,22.00
2017-05-16T09:03:46.611Z,22.10
2017-05-16T09:06:14.254Z,22.00
2017-05-16T09:08:42.637Z,23.40
2017-05-16T09:11:10.588Z,23.40
2017-05-16T09:13:38.220Z,21.90
2017-05-16T09:16:06.398Z,20.10
2017-05-16T09:18:34.802Z,19.70
2017-05-16T09:21:02.417Z,19.80
2017-05-16T09:23:30.057Z,18.20
2017-05-16T09:25:57.673Z,19.70
2017-05-16T09:28:26.091Z,17.00
2017-05-16T09:30:53.717Z,17.00
2017-05-16T09:33:21.367Z,17.50
2017-05-16T09:35:49.750Z,17.00
2017-05-16T09:38:17.385Z,17.00
2017-05-16T09:40:45.003Z,17.40
2017-05-16T09:43:12.642Z,19.40
2017-05-16T09:45:40.264Z,18.10
2017-05-16T09:48:08.676Z,17.70
2017-05-16T09:50:36.312Z,17.30
2017-05-16T09:53:03.952Z,18.40
2017-05-16T09:55:31.569Z,18.80
2017-05-16T09:58:00.271Z,17.20
2017-05-16T10:00:27.884Z,17.20
2017-05-16T10:02:56.272Z,18.40
2017-05-16T10:05:23.938Z,17.90
2017-05-16T10:07:52.328Z,17.80
2017-05-16T10:10:20.733Z,16.70
2017-05-16T10:12:49.112Z,18.40
2017-05-16T10:15:17.534Z,18.60
2017-05-16T10:17:46.652Z,19.40
2017-05-16T10:20:14.297Z,19.40
2017-05-16T10:22:43.712Z,18.00
2017-05-16T10:25:11.363Z,17.90
2017-05-16T10:27:39.760Z,18.90
2017-05-16T10:30:07.399Z,19.00
2017-05-16T10:32:35.009Z,21.20
2017-05-16T10:35:02.653Z,20.00
2017-05-16T10:37:30.268Z,19.30
2017-05-16T10:39:59.086Z,19.50
2017-05-16T10:42:27.468Z,19.20
2017-05-16T10:44:55.197Z,19.20
2017-05-16T10:47:22.838Z,21.90
2017-05-16T10:49:50.447Z,23.40
2017-05-16T10:52:18.865Z,20.20
2017-05-16T10:54:46.485Z,20.10
2017-05-16T10:57:14.129Z,19.70
2017-05-16T10:59:41.750Z,21.20
2017-05-16T11:02:10.154Z,21.00
2017-05-16T11:04:37.764Z,20.90
2017-05-16T11:07:06.492Z,19.40
2017-05-16T11:09:34.885Z,20.40
2017-05-16T11:12:02.508Z,20.40
2017-05-16T11:14:30.160Z,19.10
2017-05-16T11:16:58.553Z,19.60
2017-05-16T11:19:26.209Z,19.20
2017-05-16T11:21:53.830Z,19.00
2017-05-16T11:24:21.485Z,19.90
2017-05-16T11:26:49.893Z,19.20
2017-05-16T11:29:18.661Z,18.20
2017-05-16T11:31:47.045Z,18.20
2017-05-16T11:34:15.425Z,17.80
2017-05-16T11:36:43.071Z,17.90
2017-05-16T11:39:11.453Z,21.20
2017-05-16T11:41:39.863Z,19.60
2017-05-16T11:44:07.478Z,19.60
2017-05-16T11:46:35.886Z,22.00
2017-05-16T11:49:03.519Z,21.80
2017-05-16T11:51:31.170Z,22.00
2017-05-16T11:53:58.792Z,24.30
2017-05-16T11:56:26.446Z,22.10
2017-05-16T11:58:54.075Z,24.10
2017-05-16T12:01:21.735Z,23.90
2017-05-16T12:03:49.363Z,24.20
2017-05-16T12:06:17.005Z,23.10
2017-05-16T12:08:44.629Z,23.70
2017-05-16T12:11:12.561Z,24.10
2017-05-16T12:13:40.950Z,22.20
2017-05-16T12:16:08.564Z,22.10
2017-05-16T12:18:36.214Z,22.60
2017-05-16T12:21:04.599Z,24.30
2017-05-16T12:23:33.017Z,24.30
2017-05-16T12:26:00.637Z,24.20
2017-05-16T12:28:28.287Z,22.70
2017-05-16T12:30:55.910Z,21.80
2017-05-16T12:33:24.701Z,21.90
2017-05-16T12:35:52.320Z,21.80
2017-05-16T12:38:20.737Z,20.90
2017-05-16T12:40:48.373Z,20.90
2017-05-16T12:43:16.003Z,20.20
2017-05-16T12:45:43.652Z,20.00
2017-05-16T12:48:11.277Z,20.80
2017-05-16T12:50:38.924Z,21.90
2017-05-16T12:53:06.546Z,21.10
2017-05-16T12:55:35.253Z,24.80
2017-05-16T12:58:02.875Z,24.00
2017-05-16T13:00:31.266Z,21.10
2017-05-16T13:02:58.921Z,21.10
2017-05-16T13:05:26.541Z,25.30
2017-05-16T13:07:54.960Z,23.70
2017-05-16T13:10:22.576Z,23.60
2017-05-16T13:12:50.533Z,24.40
2017-05-16T13:15:18.928Z,21.50
2017-05-16T13:17:48.060Z,23.70
2017-05-16T13:20:15.698Z,23.60
2017-05-16T13:22:44.093Z,24.50
2017-05-16T13:25:11.747Z,24.50
2017-05-16T13:27:40.137Z,23.80
2017-05-16T13:30:07.794Z,23.80
2017-05-16T13:32:36.184Z,24.20
2017-05-16T13:35:04.148Z,24.20
2017-05-16T13:37:31.777Z,24.10
2017-05-16T13:40:01.927Z,22.70
2017-05-16T13:42:30.951Z,23.90
2017-05-16T13:44:59.335Z,25.20
2017-05-16T13:47:26.974Z,25.20
2017-05-16T13:49:54.603Z,26.80
2017-05-16T13:52:22.264Z,26.70
2017-05-16T13:54:49.913Z,24.10
2017-05-16T13:57:18.318Z,26.20
2017-05-16T13:59:45.940Z,26.20
2017-05-16T14:02:13.887Z,25.90
2017-05-16T14:04:41.509Z,25.10
2017-05-16T14:07:09.901Z,25.20
2017-05-16T14:09:37.550Z,25.10
2017-05-16T14:12:05.176Z,25.90
2017-05-16T14:14:33.161Z,26.70
2017-05-16T14:17:01.558Z,26.20
2017-05-16T14:19:29.295Z,26.10
2017-05-16T14:21:56.968Z,24.20
2017-05-16T14:24:24.601Z,25.60
2017-05-16T14:26:53.316Z,25.80
2017-05-16T14:29:20.945Z,25.80
2017-05-16T14:31:49.333Z,25.00
2017-05-16T14:34:17.274Z,25.00
2017-05-16T14:36:44.888Z,25.80
2017-05-16T14:39:12.517Z,26.20
2017-05-16T14:41:40.930Z,25.60
2017-05-16T14:44:08.566Z,25.70
2017-05-16T14:46:37.015Z,27.20
2017-05-16T14:49:05.409Z,28.40
2017-05-16T14:51:33.816Z,25.30
2017-05-16T14:54:02.223Z,24.50
2017-05-16T14:56:30.635Z,26.70
2017-05-16T14:58:59.032Z,25.80
2017-05-16T15:01:26.699Z,25.80
2017-05-16T15:03:55.093Z,26.70
2017-05-16T15:06:22.760Z,26.70
2017-05-16T15:08:50.392Z,27.30
2017-05-16T15:11:18.061Z,27.80
2017-05-16T15:13:45.690Z,26.70
2017-05-16T15:16:14.109Z,26.80
2017-05-16T15:18:42.495Z,26.70
2017-05-16T15:21:10.136Z,26.70
2017-05-16T15:23:38.524Z,26.60
2017-05-16T15:26:06.164Z,26.50
2017-05-16T15:28:33.789Z,27.00
2017-05-16T15:31:02.199Z,27.80
2017-05-16T15:33:29.825Z,27.70
2017-05-16T15:35:57.469Z,26.70
2017-05-16T15:38:25.096Z,26.30
2017-05-16T15:40:53.512Z,25.50
2017-05-16T15:43:21.137Z,25.50
2017-05-16T15:45:50.332Z,24.50
2017-05-16T15:48:18.368Z,24.50
2017-05-16T15:50:45.988Z,25.90
2017-05-16T15:53:13.633Z,24.50
2017-05-16T15:55:41.271Z,25.80
2017-05-16T15:58:08.918Z,27.20
2017-05-16T16:00:37.304Z,26.80
2017-05-16T16:03:04.946Z,26.70
2017-05-16T16:05:32.570Z,26.30
2017-05-16T16:08:00.979Z,28.60
2017-05-16T16:10:28.597Z,28.60
2017-05-16T16:12:57.387Z,26.50
2017-05-16T16:15:25.004Z,26.50
2017-05-16T16:17:53.384Z,27.00
2017-05-16T16:20:21.030Z,26.90
2017-05-16T16:22:49.078Z,29.30
2017-05-16T16:25:16.736Z,26.20
2017-05-16T16:27:44.353Z,26.50
2017-05-16T16:30:12.340Z,26.80
2017-05-16T16:32:40.665Z,27.30
2017-05-16T16:35:08.291Z,29.10
2017-05-16T16:37:35.935Z,29.60
2017-05-16T16:40:03.552Z,27.60
2017-05-16T16:42:31.201Z,28.20
2017-05-16T16:44:58.834Z,27.20
2017-05-16T16:47:26.472Z,29.00
2017-05-16T16:49:54.086Z,29.50
2017-05-16T16:52:22.509Z,29.20
2017-05-16T16:54:50.145Z,29.70
2017-05-16T16:57:17.786Z,31.10
2017-05-16T16:59:45.416Z,30.30
2017-05-16T17:02:13.825Z,29.70
2017-05-16T17:04:41.442Z,29.70
2017-05-16T17:07:09.958Z,31.30
2017-05-16T17:09:37.586Z,31.30
2017-05-16T17:12:05.238Z,30.50
2017-05-16T17:14:33.629Z,31.70
2017-05-16T17:17:02.045Z,32.00
2017-05-16T17:19:29.657Z,31.90
2017-05-16T17:21:58.455Z,30.40
2017-05-16T17:24:26.068Z,30.40
2017-05-16T17:26:54.468Z,30.30
2017-05-16T17:29:22.872Z,32.10
2017-05-16T17:31:51.273Z,30.70
2017-05-16T17:34:18.972Z,30.50
2017-05-16T17:36:47.380Z,30.70
2017-05-16T17:39:15.066Z,30.00
2017-05-16T17:41:42.784Z,30.40
2017-05-16T17:44:10.425Z,30.20
2017-05-16T17:46:38.864Z,30.40
2017-05-16T17:49:07.268Z,31.20
2017-05-16T17:51:35.740Z,31.80
2017-05-16T17:54:04.138Z,31.60
2017-05-16T17:56:31.809Z,31.60
2017-05-16T17:58:59.460Z,31.90
2017-05-16T18:01:27.133Z,32.30
2017-05-16T18:03:54.801Z,32.60
2017-05-16T18:06:22.525Z,33.10
2017-05-16T18:08:50.200Z,33.40
2017-05-16T18:11:17.889Z,33.40
2017-05-16T18:13:46.310Z,34.10
2017-05-16T18:16:14.017Z,34.10
2017-05-16T18:18:41.697Z,33.60
2017-05-16T18:21:09.415Z,33.90
2017-05-16T18:23:37.826Z,35.90
2017-05-16T18:26:05.525Z,35.90
2017-05-16T18:28:33.169Z,34.60
2017-05-16T18:31:00.892Z,35.50
2017-05-16T18:33:28.562Z,34.50
2017-05-16T18:35:56.272Z,35.20
2017-05-16T18:38:24.041Z,35.30
2017-05-16T18:40:52.517Z,35.80
2017-05-16T18:43:20.953Z,35.10
2017-05-16T18:45:48.716Z,35.10
2017-05-16T18:48:17.125Z,35.40
2017-05-16T18:50:45.244Z,35.40
2017-05-16T18:53:13.653Z,35.10
2017-05-16T18:55:41.304Z,35.10
2017-05-16T18:58:09.752Z,36.10
2017-05-16T19:00:38.168Z,36.20
2017-05-16T19:03:05.828Z,36.20
2017-05-16T19:05:34.237Z,36.50
2017-05-16T19:08:01.913Z,36.40
2017-05-16T19:10:29.565Z,37.20
2017-05-16T19:12:58.004Z,38.30
2017-05-16T19:15:26.417Z,38.50
2017-05-16T19:17:54.852Z,38.90
2017-05-16T19:20:22.507Z,38.70
2017-05-16T19:22:50.536Z,37.80
2017-05-16T19:25:18.249Z,37.40
2017-05-16T19:27:45.896Z,40.60
2017-05-16T19:30:13.570Z,40.10
2017-05-16T19:32:41.241Z,41.60
2017-05-16T19:35:08.908Z,39.70
2017-05-16T19:37:36.545Z,40.20
2017-05-16T19:40:04.467Z,38.00
2017-05-16T19:42:32.109Z,38.50
2017-05-16T19:45:00.539Z,40.80
2017-05-16T19:47:28.233Z,40.60
2017-05-16T19:49:55.872Z,38.40
2017-05-16T19:52:24.304Z,38.90
2017-05-16T19:54:52.705Z,39.20
2017-05-16T19:57:20.550Z,39.00
2017-05-16T19:59:49.557Z,40.00
2017-05-16T20:02:17.220Z,40.70
2017-05-16T20:04:44.903Z,39.60
2017-05-16T20:07:12.549Z,42.00
2017-05-16T20:09:41.002Z,47.00
2017-05-16T20:12:09.430Z,43.50
2017-05-16T20:14:37.093Z,43.50
2017-05-16T20:17:04.738Z,44.00
2017-05-16T20:19:32.407Z,43.00
2017-05-16T20:22:00.057Z,43.80
2017-05-16T20:24:28.117Z,46.20
2017-05-16T20:26:55.815Z,46.70
2017-05-16T20:29:23.453Z,45.40
2017-05-16T20:31:52.185Z,44.80
2017-05-16T20:34:19.842Z,44.70
2017-05-16T20:36:47.942Z,42.80
2017-05-16T20:39:16.353Z,44.70
2017-05-16T20:41:44.776Z,46.30
2017-05-16T20:44:12.441Z,46.30
2017-05-16T20:46:40.858Z,44.60
2017-05-16T20:49:09.293Z,43.70
2017-05-16T20:51:36.929Z,43.70
2017-05-16T20:54:04.580Z,45.50
2017-05-16T20:56:33.011Z,44.70
2017-05-16T20:59:00.660Z,44.50
2017-05-16T21:01:28.356Z,41.80
2017-05-16T21:03:56.044Z,42.80
2017-05-16T21:06:23.713Z,42.10
2017-05-16T21:08:51.352Z,42.30
2017-05-16T21:11:19.384Z,44.30
2017-05-16T21:13:47.056Z,44.50
2017-05-16T21:16:15.521Z,47.20
2017-05-16T21:18:43.188Z,47.10
2017-05-16T21:21:10.883Z,42.60
2017-05-16T21:23:38.850Z,43.90
2017-05-16T21:26:07.260Z,43.40
2017-05-16T21:28:35.667Z,44.60
2017-05-16T21:31:03.346Z,44.50
2017-05-16T21:33:30.995Z,43.80
2017-05-16T21:36:00.549Z,43.60
2017-05-16T21:38:28.204Z,43.60
2017-05-16T21:40:55.894Z,43.60
2017-05-16T21:43:24.623Z,46.20
2017-05-16T21:45:53.038Z,46.60
2017-05-16T21:48:21.445Z,44.30
2017-05-16T21:50:50.333Z,44.10
2017-05-16T21:53:17.979Z,44.10
2017-05-16T21:55:45.622Z,45.40
2017-05-16T21:58:14.391Z,48.90
2017-05-16T22:00:42.034Z,48.90
2017-05-16T22:03:09.707Z,43.90
2017-05-16T22:05:38.411Z,44.60
2017-05-16T22:08:06.056Z,44.70
2017-05-16T22:10:33.701Z,45.60
2017-05-16T22:13:01.701Z,44.20
2017-05-16T22:15:29.342Z,46.00
2017-05-16T22:17:57.757Z,46.40
2017-05-16T22:20:26.588Z,45.80
2017-05-16T22:22:54.238Z,45.70
2017-05-16T22:25:21.913Z,46.10
2017-05-16T22:27:49.842Z,45.10
2017-05-16T22:30:17.493Z,45.70
2017-05-16T22:32:45.135Z,45.60
2017-05-16T22:35:13.172Z,47.20
2017-05-16T22:37:40.809Z,47.10
2017-05-16T22:40:09.212Z,45.80
2017-05-16T22:42:38.683Z,46.60
2017-05-16T22:45:06.334Z,46.60
2017-05-16T22:47:33.971Z,48.30
2017-05-16T22:50:01.919Z,46.10
2017-05-16T22:52:30.336Z,46.10
2017-05-16T22:54:58.745Z,47.40
2017-05-16T22:57:27.533Z,48.00
2017-05-16T22:59:55.184Z,48.00
2017-05-16T23:02:23.601Z,46.90
2017-05-16T23:04:51.588Z,46.90
2017-05-16T23:07:19.229Z,48.10
2017-05-16T23:09:46.861Z,48.60
2017-05-16T23:12:14.826Z,46.30
2017-05-16T23:14:43.233Z,46.80
2017-05-16T23:17:12.380Z,47.10
2017-05-16T23:19:40.403Z,47.10
2017-05-16T23:22:08.038Z,49.10
2017-05-16T23:24:36.449Z,46.70
2017-05-16T23:27:04.382Z,46.70
2017-05-16T23:29:32.798Z,48.80
2017-05-16T23:32:00.442Z,48.70
2017-05-16T23:34:29.172Z,47.10
2017-05-16T23:36:56.894Z,47.10
2017-05-16T23:39:24.555Z,47.70
2017-05-16T23:41:52.524Z,50.40
2017-05-16T23:44:20.948Z,48.10
2017-05-16T23:46:49.360Z,49.00
2017-05-16T23:49:18.283Z,48.80
2017-05-16T23:51:46.707Z,48.10
2017-05-16T23:54:14.341Z,48.10
2017-05-16T23:56:42.422Z,51.30
2017-05-16T23:59:10.081Z,49.00
